createdAt,value
2023-01-31T18:46:39.339Z,18.76
2023-01-31T18:47:39.141Z,17.59
2023-01-31T18:49:43.820Z,14.25
2023-01-31T18:50:43.681Z,12.99
2023-01-31T18:51:43.666Z,11.81
2023-01-31T18:52:43.739Z,10.89
2023-01-31T18:53:43.626Z,10.02
2023-01-31T18:54:43.617Z,9.33
2023-01-31T18:55:43.596Z,8.75
2023-01-31T18:56:43.591Z,8.36
2023-01-31T18:57:43.596Z,7.98
2023-01-31T18:58:43.550Z,7.39
2023-01-31T18:59:43.550Z,7.19
2023-01-31T19:00:43.530Z,6.93
2023-01-31T19:01:43.796Z,6.75
2023-01-31T19:02:43.486Z,6.64
2023-01-31T19:03:43.484Z,6.43
2023-01-31T19:04:43.455Z,6.28
2023-01-31T19:05:43.436Z,6.19
2023-01-31T19:06:43.419Z,6.07
2023-01-31T19:07:43.401Z,5.97
2023-01-31T19:08:43.388Z,5.94
2023-01-31T19:09:43.368Z,5.81
2023-01-31T19:10:43.350Z,5.74
2023-01-31T19:11:43.333Z,5.67
2023-01-31T19:12:43.324Z,5.69
2023-01-31T19:13:43.298Z,5.55
2023-01-31T19:14:43.282Z,5.52
2023-01-31T19:15:43.262Z,5.52
2023-01-31T19:16:43.248Z,5.41
2023-01-31T19:17:43.235Z,5.40
2023-01-31T19:18:43.214Z,5.31
2023-01-31T19:19:43.191Z,5.37
2023-01-31T19:20:43.197Z,5.26
2023-01-31T19:21:43.174Z,5.16
2023-01-31T19:22:43.152Z,5.15
2023-01-31T19:23:43.122Z,5.15
2023-01-31T19:24:43.161Z,5.18
2023-01-31T19:25:43.084Z,4.98
2023-01-31T19:26:43.204Z,5.01
2023-01-31T19:27:43.046Z,5.07
2023-01-31T19:28:43.038Z,4.97
2023-01-31T19:29:43.062Z,4.90
2023-01-31T19:30:43.046Z,4.95
2023-01-31T19:31:43.028Z,5.00
2023-01-31T19:32:42.956Z,4.90
2023-01-31T19:33:42.941Z,4.94
2023-01-31T19:34:43.035Z,4.94
2023-01-31T19:35:42.914Z,4.87
2023-01-31T19:36:42.894Z,4.94
2023-01-31T19:37:42.867Z,4.92
2023-01-31T19:38:42.881Z,4.94
2023-01-31T19:39:42.833Z,4.92
2023-01-31T19:40:42.819Z,4.84
2023-01-31T19:41:42.807Z,4.92
2023-01-31T19:42:42.770Z,4.92
2023-01-31T19:43:42.750Z,4.90
2023-01-31T19:44:42.742Z,4.94
2023-01-31T19:45:42.750Z,4.94
2023-01-31T19:46:42.700Z,4.94
2023-01-31T19:47:42.683Z,4.92
2023-01-31T19:48:42.671Z,4.97
2023-01-31T19:49:42.647Z,4.98
2023-01-31T19:50:42.626Z,4.94
2023-01-31T19:51:42.608Z,4.87
2023-01-31T19:52:42.600Z,4.90
2023-01-31T19:53:42.580Z,4.94
2023-01-31T19:54:42.553Z,4.89
2023-01-31T19:55:42.538Z,4.90
2023-01-31T19:56:42.518Z,4.94
2023-01-31T19:57:42.504Z,4.97
2023-01-31T19:58:42.477Z,4.90
2023-01-31T19:59:42.460Z,4.94
2023-01-31T20:00:42.477Z,4.89
2023-01-31T20:01:42.423Z,4.84
2023-01-31T20:02:42.401Z,4.79
2023-01-31T20:03:42.403Z,4.83
2023-01-31T20:04:42.386Z,4.84
2023-01-31T20:05:42.359Z,4.86
2023-01-31T20:06:42.326Z,4.94
2023-01-31T20:07:42.314Z,4.94
2023-01-31T20:08:42.295Z,4.94
2023-01-31T20:09:42.267Z,4.94
2023-01-31T20:10:42.246Z,4.92
2023-01-31T20:11:42.231Z,5.00
2023-01-31T20:12:42.215Z,5.07
2023-01-31T20:13:42.191Z,5.01
2023-01-31T20:14:42.176Z,5.01
2023-01-31T20:15:42.157Z,4.98
2023-01-31T20:16:42.187Z,5.05
2023-01-31T20:17:42.154Z,4.95
2023-01-31T20:18:42.100Z,5.04
2023-01-31T20:19:42.095Z,4.97
2023-01-31T20:20:42.074Z,5.02
2023-01-31T20:21:42.060Z,4.95
2023-01-31T20:22:42.024Z,5.08
2023-01-31T20:23:42.015Z,4.94
2023-01-31T20:24:41.989Z,4.97
2023-01-31T20:25:41.979Z,4.98
2023-01-31T20:26:42.007Z,5.04
2023-01-31T20:27:41.945Z,5.04
2023-01-31T20:28:41.914Z,5.00
2023-01-31T20:29:41.910Z,4.94
2023-01-31T20:30:41.926Z,4.95
2023-01-31T20:31:41.887Z,5.00
2023-01-31T20:32:41.882Z,5.01
2023-01-31T20:33:41.822Z,4.94
2023-01-31T20:34:41.798Z,5.01
2023-01-31T20:35:41.787Z,5.00
2023-01-31T20:36:41.775Z,5.04
2023-01-31T20:37:41.752Z,5.04
2023-01-31T20:38:41.724Z,5.01
2023-01-31T20:39:41.709Z,4.97
2023-01-31T20:40:41.687Z,4.92
2023-01-31T20:41:41.713Z,5.02
2023-01-31T20:42:41.647Z,5.10
2023-01-31T20:43:41.630Z,5.08
2023-01-31T20:44:41.623Z,5.01
2023-01-31T20:45:41.625Z,5.01
2023-01-31T20:46:41.581Z,5.08
2023-01-31T20:47:41.583Z,5.07
2023-01-31T20:48:41.538Z,5.07
2023-01-31T20:49:41.520Z,5.08
2023-01-31T20:50:41.498Z,5.05
2023-01-31T20:51:41.486Z,5.08
2023-01-31T20:52:41.472Z,5.07
2023-01-31T20:53:41.448Z,5.01
2023-01-31T20:54:41.440Z,5.08
2023-01-31T20:55:41.412Z,5.04
2023-01-31T20:56:41.394Z,5.10
2023-01-31T20:57:41.373Z,5.08
2023-01-31T20:58:41.352Z,5.04
2023-01-31T20:59:41.330Z,5.07
2023-01-31T21:00:41.313Z,5.10
2023-01-31T21:01:41.324Z,5.08
2023-01-31T21:02:41.342Z,5.07
2023-01-31T21:03:41.283Z,5.04
2023-01-31T21:04:41.241Z,5.04
2023-01-31T21:05:41.227Z,5.10
2023-01-31T21:06:41.220Z,5.05
2023-01-31T21:07:41.185Z,5.13
2023-01-31T21:08:41.190Z,5.13
2023-01-31T21:09:41.150Z,5.04
2023-01-31T21:10:41.126Z,5.22
2023-01-31T21:11:41.108Z,5.04
2023-01-31T21:12:41.090Z,5.08
2023-01-31T21:13:41.078Z,5.15
2023-01-31T21:14:41.054Z,5.15
2023-01-31T21:15:41.093Z,5.07
2023-01-31T21:16:41.024Z,5.08
2023-01-31T21:17:40.996Z,5.07
2023-01-31T21:18:40.976Z,5.08
2023-01-31T21:19:40.961Z,5.08
2023-01-31T21:20:41.092Z,5.05
2023-01-31T21:21:40.920Z,5.02
2023-01-31T21:22:40.903Z,5.05
2023-01-31T21:23:40.924Z,4.98
2023-01-31T21:24:40.871Z,5.01
2023-01-31T21:25:40.853Z,5.01
2023-01-31T21:26:40.856Z,5.08
2023-01-31T21:27:40.830Z,5.00
2023-01-31T21:28:40.791Z,5.10
2023-01-31T21:29:40.772Z,5.07
2023-01-31T21:30:40.842Z,5.00
2023-01-31T21:31:40.899Z,5.05
2023-01-31T21:32:40.717Z,5.05
2023-01-31T21:33:40.723Z,5.04
2023-01-31T21:34:41.054Z,5.10
2023-01-31T21:35:40.666Z,5.08
2023-01-31T21:36:40.654Z,5.15
2023-01-31T21:37:40.630Z,5.08
2023-01-31T21:38:40.610Z,5.12
2023-01-31T21:39:40.605Z,5.18
2023-01-31T21:40:40.568Z,5.16
2023-01-31T21:41:40.557Z,5.16
2023-01-31T21:42:42.829Z,5.13
2023-01-31T21:43:40.512Z,5.12
2023-01-31T21:44:40.495Z,5.20
2023-01-31T21:45:40.511Z,5.16
2023-01-31T21:46:40.467Z,5.20
2023-01-31T21:47:40.439Z,5.19
2023-01-31T21:48:40.439Z,5.15
2023-01-31T21:49:40.407Z,5.20
2023-01-31T21:50:40.386Z,5.20
2023-01-31T21:52:40.378Z,5.19
2023-01-31T21:53:40.369Z,5.19
2023-01-31T21:54:40.443Z,5.23
2023-01-31T21:55:40.328Z,5.25
2023-01-31T21:56:40.309Z,5.19
2023-01-31T21:57:40.278Z,5.19
2023-01-31T21:59:01.265Z,5.20
2023-01-31T21:59:40.243Z,5.19
2023-01-31T22:00:40.231Z,5.18
2023-01-31T22:01:40.358Z,5.23
2023-01-31T22:02:40.215Z,5.13
2023-01-31T22:03:40.161Z,5.13
2023-01-31T22:05:01.186Z,5.18
2023-01-31T22:05:40.145Z,5.16
2023-01-31T22:06:40.131Z,5.12
2023-01-31T22:07:40.094Z,5.10
2023-01-31T22:08:40.103Z,5.16
2023-01-31T22:09:40.062Z,5.20
2023-01-31T22:11:01.043Z,5.19
2023-01-31T22:11:40.019Z,5.19
2023-01-31T22:12:40.057Z,5.13
2023-01-31T22:13:39.979Z,5.12
2023-01-31T22:14:40.116Z,5.18
2023-01-31T22:15:39.976Z,5.12
2023-01-31T22:17:00.936Z,5.10
2023-01-31T22:17:39.906Z,5.12
2023-01-31T22:18:39.897Z,5.10
2023-01-31T22:19:39.880Z,5.15
2023-01-31T22:20:39.864Z,5.12
2023-01-31T22:21:39.836Z,5.10
2023-01-31T22:23:00.815Z,5.12
2023-01-31T22:23:40.654Z,5.10
2023-01-31T22:24:39.936Z,5.04
2023-01-31T22:25:39.764Z,5.04
2023-01-31T22:26:39.777Z,5.12
2023-01-31T22:27:39.713Z,5.07
2023-01-31T22:29:00.723Z,5.12
2023-01-31T22:29:39.822Z,5.10
2023-01-31T22:30:39.821Z,5.07
2023-01-31T22:31:39.794Z,5.08
2023-01-31T22:32:39.634Z,5.04
2023-01-31T22:33:39.613Z,5.01
2023-01-31T22:35:00.602Z,5.04
2023-01-31T22:35:39.564Z,5.04
2023-01-31T22:36:39.553Z,5.13
2023-01-31T22:37:39.560Z,5.07
2023-01-31T22:38:39.512Z,5.07
2023-01-31T22:39:39.522Z,5.10
2023-01-31T22:41:00.470Z,5.12
2023-01-31T22:41:39.461Z,5.07
2023-01-31T22:42:39.436Z,5.04
2023-01-31T22:43:39.495Z,5.10
2023-01-31T22:44:39.413Z,5.08
2023-01-31T22:45:39.399Z,5.01
2023-01-31T22:47:00.378Z,5.08
2023-01-31T22:47:39.340Z,5.12
2023-01-31T22:48:39.325Z,5.02
2023-01-31T22:49:39.312Z,5.13
2023-01-31T22:50:39.296Z,5.05
2023-01-31T22:51:39.273Z,5.12
2023-01-31T22:53:00.259Z,5.02
2023-01-31T22:53:39.250Z,5.04
2023-01-31T22:54:39.218Z,5.04
2023-01-31T22:55:39.199Z,5.10
2023-01-31T22:56:39.173Z,5.02
2023-01-31T22:57:39.237Z,5.07
2023-01-31T22:59:00.144Z,5.00
2023-01-31T22:59:39.142Z,5.05
2023-01-31T23:00:39.106Z,5.13
2023-01-31T23:01:39.088Z,5.01
2023-01-31T23:02:39.091Z,4.95
2023-01-31T23:03:39.051Z,4.98
2023-01-31T23:05:00.034Z,4.95
2023-01-31T23:05:39.011Z,4.98
2023-01-31T23:06:41.650Z,4.95
2023-01-31T23:07:38.968Z,5.02
2023-01-31T23:08:39.039Z,5.00
2023-01-31T23:09:39.294Z,5.07
2023-01-31T23:10:59.919Z,4.97
2023-01-31T23:11:38.909Z,4.95
2023-01-31T23:12:38.885Z,4.94
2023-01-31T23:13:38.860Z,5.02
2023-01-31T23:14:38.840Z,4.95
2023-01-31T23:15:38.841Z,5.07
2023-01-31T23:16:59.805Z,5.00
2023-01-31T23:17:38.795Z,5.07
2023-01-31T23:18:38.771Z,5.00
2023-01-31T23:19:38.741Z,5.02
2023-01-31T23:20:38.749Z,5.02
2023-01-31T23:21:38.718Z,5.02
2023-01-31T23:22:59.688Z,5.02
2023-01-31T23:23:38.677Z,4.98
2023-01-31T23:24:38.649Z,5.00
2023-01-31T23:25:38.628Z,5.00
2023-01-31T23:26:38.659Z,5.00
2023-01-31T23:27:38.604Z,4.95
2023-01-31T23:28:59.590Z,4.97
2023-01-31T23:29:38.559Z,4.94
2023-01-31T23:30:38.574Z,4.94
2023-01-31T23:31:38.691Z,4.89
2023-01-31T23:32:38.504Z,4.84
2023-01-31T23:33:38.498Z,4.83
2023-01-31T23:34:59.457Z,4.87
2023-01-31T23:35:38.444Z,4.82
2023-01-31T23:36:38.427Z,4.76
2023-01-31T23:37:38.404Z,4.78
2023-01-31T23:38:38.378Z,4.75
2023-01-31T23:39:38.373Z,4.70
2023-01-31T23:40:59.344Z,4.82
2023-01-31T23:41:38.329Z,4.70
2023-01-31T23:42:38.305Z,4.75
2023-01-31T23:43:38.305Z,4.84
2023-01-31T23:44:38.269Z,4.79
2023-01-31T23:45:38.259Z,4.76
2023-01-31T23:46:59.269Z,4.90
2023-01-31T23:47:38.236Z,4.74
2023-01-31T23:48:38.197Z,4.86
2023-01-31T23:49:38.171Z,4.83
2023-01-31T23:50:38.156Z,4.79
2023-01-31T23:51:38.146Z,4.82
2023-01-31T23:52:59.128Z,4.82
2023-01-31T23:53:38.105Z,4.92
2023-01-31T23:54:38.081Z,4.84
2023-01-31T23:55:38.063Z,4.83
2023-01-31T23:56:38.041Z,4.94
2023-01-31T23:57:38.029Z,4.89
2023-01-31T23:58:59.018Z,4.84
2023-01-31T23:59:37.997Z,4.89
